Portada
METAR-TAF:

METAR-TAF

Aeroports :

Aomori, Japó

latitud: 40-44N, longitud: 140-42E, altitud: 199 m

Observació

L'informe es va fer fa 54 minuts, a les 04:00 UTC
Vent 14 kt del Sud/Sud-Oest
Temperatura 12°C
Humitat 47%
Pressió 1013 hPa
Visibilitat 10 km o més
sense núvols per sota de 1500 mi sense presència de cumulonimbus.

METAR: RJSA 200400Z 21014KT CAVOK 12/01 Q1013

Hora: 13:54 (04:54 UTC)

Pronòstic

L'informe es va fer fa 5 hores i 49 minuts, a les 23:05 UTC
Pronòstic vàlid del 20 a les 00 UTC al 21 a les 06 UTC
Vent 15 kt del Sud/Sud-Oest
Visibilitat 10 km o més
Escasses núvols a una alçada de 3000 ft

TAF: RJSA 192305Z 2000/2106 21015KT 9999 FEW030

Observacions i pronòstics meteorològics de més de 4000 aeroports (METAR i TAF).

Les estacions disponibles són els punts grocs i vermells al mapa.

Posi el ratolí al punt desitjat per veure el nom de l'estació.

Feu clic per veure les observacions i els pronòstics meteorològics.

Per canviar el mapa: feu clic els botons verds amb una creu de color negre per apropar; al botó verd amb un guió per allunyar la imatge; o en les fletxes verdes per a mapes adjacents.


METAR-TAF: